createdAt,value
2017-08-08T00:00:12.850Z,0
2017-08-08T00:01:12.878Z,0
2017-08-08T00:02:12.845Z,0
2017-08-08T00:03:12.823Z,0
2017-08-08T00:04:12.846Z,0
2017-08-08T00:05:12.854Z,0
2017-08-08T00:06:12.882Z,0
2017-08-08T00:07:12.847Z,0
2017-08-08T00:08:12.882Z,0
2017-08-08T00:09:12.927Z,0
2017-08-08T00:10:12.865Z,0
2017-08-08T00:11:12.886Z,0
2017-08-08T00:12:12.863Z,0
2017-08-08T00:13:12.834Z,0
2017-08-08T00:14:12.871Z,0
2017-08-08T00:15:12.890Z,0
2017-08-08T00:16:12.903Z,0
2017-08-08T00:17:12.860Z,0
2017-08-08T00:18:12.858Z,0
2017-08-08T00:19:12.888Z,0
2017-08-08T00:20:12.831Z,0
2017-08-08T00:21:12.890Z,0
2017-08-08T00:22:12.828Z,0
2017-08-08T00:23:12.893Z,0
2017-08-08T00:24:12.898Z,0
2017-08-08T00:25:12.832Z,0
2017-08-08T00:26:12.863Z,0
2017-08-08T00:27:12.834Z,0
2017-08-08T00:28:12.931Z,0
2017-08-08T00:29:12.937Z,0
2017-08-08T00:30:12.941Z,0
2017-08-08T00:31:12.907Z,0
2017-08-08T00:32:12.902Z,0
2017-08-08T00:33:12.903Z,0
2017-08-08T00:34:12.917Z,0
2017-08-08T00:35:12.867Z,0
2017-08-08T00:36:12.908Z,0
2017-08-08T00:37:12.905Z,0
2017-08-08T00:38:12.940Z,0
2017-08-08T00:39:12.946Z,0
2017-08-08T00:40:12.913Z,0
2017-08-08T00:41:12.888Z,0
2017-08-08T00:42:12.946Z,0
2017-08-08T00:43:12.887Z,0
2017-08-08T00:44:12.964Z,0
2017-08-08T00:45:12.917Z,0
2017-08-08T00:46:12.913Z,0
2017-08-08T00:47:12.853Z,0
2017-08-08T00:48:12.948Z,0
2017-08-08T00:49:12.946Z,0
2017-08-08T00:50:12.923Z,0
2017-08-08T00:51:12.882Z,0
2017-08-08T00:52:12.892Z,0
2017-08-08T00:53:12.883Z,0
2017-08-08T00:54:12.856Z,0
2017-08-08T00:55:12.909Z,0
2017-08-08T00:56:12.881Z,0
2017-08-08T00:57:12.910Z,0
2017-08-08T00:58:12.862Z,0
2017-08-08T00:59:12.916Z,0
2017-08-08T01:00:12.856Z,0
2017-08-08T01:01:12.852Z,0
2017-08-08T01:02:12.916Z,0
2017-08-08T01:03:12.856Z,0
2017-08-08T01:04:12.857Z,0
2017-08-08T01:05:12.857Z,0
2017-08-08T01:06:12.916Z,0
2017-08-08T01:07:12.923Z,0
2017-08-08T01:08:12.818Z,0
2017-08-08T01:09:12.888Z,0
2017-08-08T01:10:12.834Z,0
2017-08-08T01:11:12.847Z,0
2017-08-08T01:12:12.891Z,0
2017-08-08T01:13:12.936Z,0
2017-08-08T01:14:12.934Z,0
2017-08-08T01:15:12.887Z,0
2017-08-08T01:16:12.878Z,0
2017-08-08T01:17:12.864Z,0
2017-08-08T01:18:12.887Z,0
2017-08-08T01:19:12.868Z,0
2017-08-08T01:20:12.924Z,0
2017-08-08T01:21:12.862Z,0
2017-08-08T01:22:12.927Z,0
2017-08-08T01:23:12.892Z,0
2017-08-08T01:24:12.933Z,0
2017-08-08T01:25:12.925Z,0
2017-08-08T01:26:12.927Z,0
2017-08-08T01:27:12.898Z,0
2017-08-08T01:28:12.898Z,0
2017-08-08T01:29:12.929Z,0
2017-08-08T01:30:12.871Z,0
2017-08-08T01:31:12.937Z,0
2017-08-08T01:32:12.898Z,0
2017-08-08T01:33:12.899Z,0
2017-08-08T01:34:12.934Z,0
2017-08-08T01:35:12.875Z,0
2017-08-08T01:36:12.939Z,0
2017-08-08T01:37:12.898Z,0
2017-08-08T01:38:12.885Z,0
2017-08-08T01:39:12.922Z,0
2017-08-08T01:40:12.894Z,0
2017-08-08T01:41:12.935Z,0
2017-08-08T01:42:12.954Z,0
2017-08-08T01:43:12.946Z,0
2017-08-08T01:44:12.885Z,0
2017-08-08T01:45:12.983Z,0
2017-08-08T01:46:12.890Z,0
2017-08-08T01:47:12.970Z,0
2017-08-08T01:48:12.907Z,0
2017-08-08T01:49:12.944Z,0
2017-08-08T01:50:12.951Z,0
2017-08-08T01:51:12.911Z,0
2017-08-08T01:52:12.949Z,0
2017-08-08T01:53:12.888Z,0
2017-08-08T01:54:12.911Z,0
2017-08-08T01:55:12.919Z,0
2017-08-08T01:56:12.953Z,0
2017-08-08T01:57:12.947Z,0
2017-08-08T01:58:12.868Z,0
2017-08-08T01:59:12.888Z,0
2017-08-08T02:00:12.915Z,0
2017-08-08T02:01:13.049Z,0
2017-08-08T02:02:12.962Z,0
2017-08-08T02:03:12.899Z,0
2017-08-08T02:04:12.869Z,0
2017-08-08T02:05:12.904Z,0
2017-08-08T02:06:12.916Z,0
2017-08-08T02:07:12.920Z,0
2017-08-08T02:08:12.927Z,0
2017-08-08T02:09:12.988Z,0
2017-08-08T02:10:12.987Z,0
2017-08-08T02:11:12.992Z,0
2017-08-08T02:12:12.933Z,0
2017-08-08T02:13:12.958Z,0
2017-08-08T02:14:12.991Z,0
2017-08-08T02:15:12.994Z,0
2017-08-08T02:16:12.974Z,0
2017-08-08T02:17:12.938Z,0
2017-08-08T02:18:12.983Z,0
2017-08-08T02:19:12.995Z,0
2017-08-08T02:20:12.996Z,0
2017-08-08T02:21:12.913Z,0
2017-08-08T02:22:12.907Z,0
2017-08-08T02:23:12.907Z,0
2017-08-08T02:24:12.927Z,0
2017-08-08T02:25:12.929Z,0
2017-08-08T02:26:12.947Z,0
2017-08-08T02:27:12.942Z,0
2017-08-08T02:28:12.939Z,0
2017-08-08T02:29:12.912Z,0
2017-08-08T02:30:13.000Z,0
2017-08-08T02:31:12.996Z,0
2017-08-08T02:32:12.951Z,0
2017-08-08T02:33:12.948Z,0
2017-08-08T02:34:12.945Z,0
2017-08-08T02:35:12.942Z,0
2017-08-08T02:36:13.014Z,0
2017-08-08T02:37:12.991Z,0
2017-08-08T02:38:12.968Z,0
2017-08-08T02:39:12.972Z,0
2017-08-08T02:40:12.909Z,0
2017-08-08T02:41:12.983Z,0
2017-08-08T02:42:12.912Z,0
2017-08-08T02:43:12.943Z,0
2017-08-08T02:44:12.982Z,0
2017-08-08T02:45:12.976Z,0
2017-08-08T02:46:12.939Z,0
2017-08-08T02:47:12.942Z,0
2017-08-08T02:48:12.977Z,0
2017-08-08T02:49:12.923Z,0
2017-08-08T02:50:12.913Z,0
2017-08-08T02:51:12.920Z,0
2017-08-08T02:52:12.947Z,0
2017-08-08T02:53:12.922Z,0
2017-08-08T02:54:12.947Z,0
2017-08-08T02:55:12.982Z,0
2017-08-08T02:56:12.988Z,0
2017-08-08T02:57:12.948Z,0
2017-08-08T02:58:12.941Z,0
2017-08-08T02:59:12.943Z,0
2017-08-08T03:00:12.868Z,0
2017-08-08T03:01:12.873Z,0
2017-08-08T03:02:12.867Z,0
2017-08-08T03:03:12.915Z,0
2017-08-08T03:04:12.870Z,0
2017-08-08T03:05:12.928Z,0
2017-08-08T03:06:12.932Z,0
2017-08-08T03:07:12.900Z,0
2017-08-08T03:08:12.987Z,0
2017-08-08T03:09:12.988Z,0
2017-08-08T03:10:12.958Z,0
2017-08-08T03:11:12.954Z,0
2017-08-08T03:12:12.955Z,0
2017-08-08T03:13:12.933Z,0
2017-08-08T03:14:12.927Z,0
2017-08-08T03:15:12.956Z,0
2017-08-08T03:16:12.932Z,0
2017-08-08T03:17:12.961Z,0
2017-08-08T03:18:12.969Z,0
2017-08-08T03:19:12.970Z,0
2017-08-08T03:20:12.942Z,0
2017-08-08T03:21:12.943Z,0
2017-08-08T03:22:12.944Z,0
2017-08-08T03:23:12.972Z,0
2017-08-08T03:24:13.013Z,0
2017-08-08T03:25:13.037Z,0
2017-08-08T03:26:13.038Z,0
2017-08-08T03:27:13.036Z,0
2017-08-08T03:28:12.982Z,0
2017-08-08T03:29:12.947Z,0
2017-08-08T03:30:12.952Z,0
2017-08-08T03:31:13.035Z,0
2017-08-08T03:32:13.037Z,0
2017-08-08T03:33:12.946Z,0
2017-08-08T03:34:13.043Z,0
2017-08-08T03:35:13.042Z,0
2017-08-08T03:36:12.988Z,0
2017-08-08T03:37:13.045Z,0
2017-08-08T03:38:12.981Z,0
2017-08-08T03:39:12.942Z,5
2017-08-08T03:40:13.011Z,5
2017-08-08T03:41:12.980Z,5
2017-08-08T03:42:12.973Z,5
2017-08-08T03:43:12.948Z,5
2017-08-08T03:44:12.974Z,11
2017-08-08T03:45:13.011Z,11
2017-08-08T03:46:13.006Z,11
2017-08-08T03:47:13.016Z,11
2017-08-08T03:48:12.976Z,11
2017-08-08T03:49:12.944Z,16
2017-08-08T03:50:12.964Z,16
2017-08-08T03:51:12.955Z,16
2017-08-08T03:52:12.900Z,22
2017-08-08T03:53:12.950Z,22
2017-08-08T03:54:12.964Z,28
2017-08-08T03:55:12.969Z,28
2017-08-08T03:56:12.899Z,28
2017-08-08T03:57:12.977Z,33
2017-08-08T03:58:13.015Z,33
2017-08-08T03:59:12.974Z,39
2017-08-08T04:00:12.966Z,39
2017-08-08T04:01:12.969Z,45
2017-08-08T04:02:13.021Z,50
2017-08-08T04:03:12.992Z,50
2017-08-08T04:04:13.008Z,56
2017-08-08T04:05:13.057Z,61
2017-08-08T04:06:13.024Z,67
2017-08-08T04:07:13.057Z,67
2017-08-08T04:08:13.046Z,73
2017-08-08T04:09:12.961Z,78
2017-08-08T04:10:13.029Z,78
2017-08-08T04:11:13.034Z,84
2017-08-08T04:12:12.958Z,90
2017-08-08T04:13:12.994Z,95
2017-08-08T04:14:12.972Z,101
2017-08-08T04:15:12.962Z,106
2017-08-08T04:16:13.032Z,112
2017-08-08T04:17:13.028Z,118
2017-08-08T04:18:13.000Z,123
2017-08-08T04:19:13.025Z,135
2017-08-08T04:20:12.966Z,140
2017-08-08T04:21:12.962Z,146
2017-08-08T04:22:12.996Z,146
2017-08-08T04:23:12.967Z,151
2017-08-08T04:24:12.996Z,151
2017-08-08T04:25:12.997Z,157
2017-08-08T04:26:12.998Z,157
2017-08-08T04:27:12.970Z,157
2017-08-08T04:28:13.032Z,163
2017-08-08T04:29:12.967Z,163
2017-08-08T04:30:13.035Z,163
2017-08-08T04:31:12.969Z,163
2017-08-08T04:32:13.031Z,163
2017-08-08T04:33:13.003Z,163
2017-08-08T04:34:13.001Z,163
2017-08-08T04:35:13.001Z,168
2017-08-08T04:36:13.004Z,168
2017-08-08T04:37:13.038Z,174
2017-08-08T04:38:13.060Z,174
2017-08-08T04:39:13.008Z,180
2017-08-08T04:40:12.987Z,180
2017-08-08T04:41:12.980Z,185
2017-08-08T04:42:12.955Z,191
2017-08-08T04:43:13.008Z,196
2017-08-08T04:44:12.964Z,202
2017-08-08T04:45:12.988Z,208
2017-08-08T04:46:12.988Z,219
2017-08-08T04:47:13.015Z,230
2017-08-08T04:48:13.014Z,241
2017-08-08T04:49:12.995Z,258
2017-08-08T04:50:13.028Z,275
2017-08-08T04:51:12.995Z,281
2017-08-08T04:52:13.022Z,298
2017-08-08T04:53:13.085Z,298
2017-08-08T04:54:12.991Z,309
2017-08-08T04:55:13.089Z,309
2017-08-08T04:56:12.999Z,315
2017-08-08T04:57:13.068Z,315
2017-08-08T04:58:13.031Z,320
2017-08-08T04:59:13.089Z,326
2017-08-08T05:00:13.026Z,331
2017-08-08T05:01:13.070Z,343
2017-08-08T05:02:13.001Z,360
2017-08-08T05:03:13.060Z,371
2017-08-08T05:04:13.076Z,382
2017-08-08T05:05:13.066Z,393
2017-08-08T05:06:13.096Z,405
2017-08-08T05:07:13.010Z,416
2017-08-08T05:08:13.001Z,433
2017-08-08T05:09:13.029Z,450
2017-08-08T05:10:12.980Z,466
2017-08-08T05:11:13.024Z,489
2017-08-08T05:12:13.017Z,500
2017-08-08T05:13:13.073Z,511
2017-08-08T05:14:13.028Z,540
2017-08-08T05:15:13.001Z,556
2017-08-08T05:16:13.028Z,573
2017-08-08T05:17:13.035Z,585
2017-08-08T05:18:13.031Z,596
2017-08-08T05:19:13.009Z,618
2017-08-08T05:20:13.014Z,635
2017-08-08T05:21:13.044Z,652
2017-08-08T05:22:13.074Z,669
2017-08-08T05:23:13.045Z,697
2017-08-08T05:24:13.069Z,714
2017-08-08T05:25:13.016Z,748
2017-08-08T05:26:13.049Z,765
2017-08-08T05:27:13.017Z,787
2017-08-08T05:28:13.107Z,826
2017-08-08T05:29:13.017Z,849
2017-08-08T05:30:13.052Z,877
2017-08-08T05:31:13.009Z,900
2017-08-08T05:32:13.020Z,939
2017-08-08T05:33:13.086Z,956
2017-08-08T05:34:13.105Z,995
2017-08-08T05:35:13.110Z,1006
2017-08-08T05:36:13.107Z,1012
2017-08-08T05:37:13.024Z,1001
2017-08-08T05:38:13.040Z,939
2017-08-08T05:39:13.003Z,928
2017-08-08T05:40:13.003Z,905
2017-08-08T05:41:13.034Z,916
2017-08-08T05:42:13.019Z,911
2017-08-08T05:43:12.986Z,894
2017-08-08T05:44:13.010Z,916
2017-08-08T05:45:13.016Z,877
2017-08-08T05:46:13.158Z,871
2017-08-08T05:47:13.003Z,849
2017-08-08T05:48:13.030Z,838
2017-08-08T05:49:13.078Z,810
2017-08-08T05:50:13.090Z,793
2017-08-08T05:51:13.120Z,765
2017-08-08T05:52:13.080Z,731
2017-08-08T05:53:13.063Z,708
2017-08-08T05:54:13.090Z,691
2017-08-08T05:55:13.067Z,703
2017-08-08T05:56:13.100Z,697
2017-08-08T05:57:13.104Z,770
2017-08-08T05:58:13.037Z,753
2017-08-08T05:59:13.023Z,720
2017-08-08T06:00:13.056Z,714
2017-08-08T06:01:13.208Z,697
2017-08-08T06:02:13.060Z,686
2017-08-08T06:03:13.056Z,663
2017-08-08T06:04:13.024Z,641
2017-08-08T06:05:13.036Z,618
2017-08-08T06:06:13.023Z,613
2017-08-08T06:07:13.026Z,630
2017-08-08T06:08:13.030Z,658
2017-08-08T06:09:13.111Z,680
2017-08-08T06:10:13.068Z,720
2017-08-08T06:11:13.113Z,748
2017-08-08T06:12:13.092Z,776
2017-08-08T06:13:13.135Z,810
2017-08-08T06:14:13.070Z,849
2017-08-08T06:15:13.134Z,894
2017-08-08T06:16:13.136Z,922
2017-08-08T06:17:13.103Z,950
2017-08-08T06:18:13.046Z,984
2017-08-08T06:19:13.056Z,1001
2017-08-08T06:20:13.192Z,990
2017-08-08T06:21:13.060Z,1001
2017-08-08T06:22:13.042Z,1001
2017-08-08T06:23:13.069Z,1012
2017-08-08T06:24:13.066Z,1035
2017-08-08T06:25:13.045Z,1046
2017-08-08T06:26:13.187Z,1080
2017-08-08T06:27:13.060Z,1141
2017-08-08T06:28:13.062Z,1181
2017-08-08T06:29:13.079Z,1158
2017-08-08T06:30:13.049Z,1147
2017-08-08T06:31:13.057Z,1153
2017-08-08T06:33:13.052Z,1333
2017-08-08T06:34:13.123Z,1271
2017-08-08T06:35:13.112Z,1231
2017-08-08T06:36:13.140Z,1344
2017-08-08T06:37:13.153Z,1350
2017-08-08T06:38:13.151Z,1282
2017-08-08T06:39:13.129Z,1350
2017-08-08T06:40:13.111Z,1389
2017-08-08T06:41:13.079Z,1406
2017-08-08T06:42:13.085Z,1456
2017-08-08T06:43:13.153Z,1546
2017-08-08T06:44:13.152Z,1608
2017-08-08T06:45:13.153Z,1501
2017-08-08T06:46:13.132Z,1406
2017-08-08T06:47:13.132Z,1355
2017-08-08T06:48:13.157Z,1164
2017-08-08T06:49:13.113Z,1203
2017-08-08T06:50:13.062Z,1327
2017-08-08T06:51:13.099Z,1417
2017-08-08T06:52:13.118Z,1260
2017-08-08T06:53:13.192Z,1434
2017-08-08T06:54:13.092Z,1383
2017-08-08T06:55:13.068Z,1490
2017-08-08T06:56:13.103Z,1676
2017-08-08T06:57:13.140Z,1766
2017-08-08T06:58:13.162Z,1766
2017-08-08T06:59:13.098Z,1749
2017-08-08T07:00:13.096Z,1811
2017-08-08T07:01:13.068Z,1878
2017-08-08T07:02:13.094Z,1901
2017-08-08T07:03:13.164Z,1406
2017-08-08T07:04:13.106Z,1642
2017-08-08T07:05:13.098Z,1715
2017-08-08T07:06:13.070Z,1681
2017-08-08T07:07:13.077Z,2823
2017-08-08T07:08:13.146Z,2947
2017-08-08T07:09:13.108Z,2947
2017-08-08T07:10:13.106Z,2790
2017-08-08T07:11:13.150Z,2340
2017-08-08T07:12:13.100Z,2064
2017-08-08T07:13:13.106Z,2216
2017-08-08T07:14:13.170Z,2430
2017-08-08T07:15:13.080Z,2604
2017-08-08T07:16:13.078Z,2660
2017-08-08T07:17:13.110Z,2165
2017-08-08T07:18:13.075Z,2413
2017-08-08T07:19:13.141Z,2261
2017-08-08T07:20:13.206Z,2396
2017-08-08T07:21:13.173Z,2041
2017-08-08T07:22:13.103Z,1906
2017-08-08T07:23:13.117Z,2013
2017-08-08T07:24:13.176Z,2238
2017-08-08T07:25:13.086Z,2131
2017-08-08T07:26:13.086Z,1974
2017-08-08T07:27:13.109Z,1591
2017-08-08T07:28:13.086Z,1580
2017-08-08T07:29:13.079Z,1625
2017-08-08T07:30:13.145Z,1912
2017-08-08T07:31:13.107Z,1895
2017-08-08T07:32:13.118Z,1788
2017-08-08T07:33:13.062Z,1794
2017-08-08T07:34:13.151Z,1946
2017-08-08T07:35:13.056Z,2131
2017-08-08T07:36:13.092Z,2098
2017-08-08T07:37:13.116Z,1951
2017-08-08T07:38:13.094Z,2390
2017-08-08T07:39:13.118Z,2559
2017-08-08T07:40:13.127Z,2615
2017-08-08T07:41:13.127Z,2610
2017-08-08T07:42:13.187Z,2806
2017-08-08T07:43:13.186Z,2688
2017-08-08T07:44:13.119Z,2362
2017-08-08T07:45:13.120Z,1485
2017-08-08T07:46:13.131Z,2407
2017-08-08T07:47:13.168Z,2790
2017-08-08T07:48:13.126Z,3076
2017-08-08T07:49:13.186Z,3268
2017-08-08T07:50:13.168Z,3307
2017-08-08T07:51:13.158Z,3330
2017-08-08T07:52:13.141Z,3391
2017-08-08T07:53:13.137Z,2351
2017-08-08T07:54:13.199Z,2120
2017-08-08T07:55:13.100Z,2334
2017-08-08T07:56:13.124Z,2295
2017-08-08T07:57:13.186Z,2761
2017-08-08T07:58:13.102Z,2536
2017-08-08T07:59:13.156Z,2778
2017-08-08T08:00:13.166Z,2486
2017-08-08T08:01:13.168Z,2767
2017-08-08T08:02:13.103Z,2643
2017-08-08T08:03:13.112Z,2660
2017-08-08T08:04:13.103Z,2801
2017-08-08T08:05:13.108Z,3076
2017-08-08T08:06:13.133Z,3037
2017-08-08T08:07:13.183Z,3003
2017-08-08T08:08:13.109Z,2368
2017-08-08T08:09:13.161Z,2109
2017-08-08T08:10:13.198Z,2216
2017-08-08T08:11:13.113Z,2413
2017-08-08T08:12:13.173Z,2283
2017-08-08T08:13:13.138Z,2475
2017-08-08T08:14:13.116Z,2340
2017-08-08T08:15:13.145Z,2413
2017-08-08T08:16:13.113Z,2115
2017-08-08T08:17:13.141Z,1991
2017-08-08T08:18:13.152Z,1918
2017-08-08T08:19:13.141Z,1963
2017-08-08T08:20:13.212Z,2756
2017-08-08T08:21:13.204Z,2812
2017-08-08T08:22:13.188Z,2806
2017-08-08T08:23:13.205Z,4033
2017-08-08T08:24:13.122Z,4078
2017-08-08T08:25:13.152Z,3993
2017-08-08T08:26:13.152Z,3954
2017-08-08T08:27:13.182Z,3470
2017-08-08T08:28:13.138Z,3549
2017-08-08T08:29:13.121Z,3481
2017-08-08T08:30:13.158Z,3414
2017-08-08T08:31:13.219Z,3290
2017-08-08T08:32:13.126Z,2880
2017-08-08T08:33:13.142Z,3138
2017-08-08T08:34:13.123Z,3054
2017-08-08T08:35:13.121Z,2525
2017-08-08T08:36:13.128Z,3110
2017-08-08T08:37:13.127Z,3088
2017-08-08T08:38:13.150Z,3436
2017-08-08T08:39:13.150Z,3712
2017-08-08T08:40:13.121Z,3127
2017-08-08T08:41:13.120Z,3695
2017-08-08T08:42:13.115Z,3200
2017-08-08T08:43:13.183Z,3808
2017-08-08T08:44:13.185Z,3408
2017-08-08T08:45:13.149Z,2930
2017-08-08T08:46:13.124Z,2368
2017-08-08T08:47:13.122Z,2216
2017-08-08T08:48:13.150Z,2340
2017-08-08T08:49:13.158Z,2598
2017-08-08T08:50:13.107Z,2705
2017-08-08T08:51:13.111Z,2767
2017-08-08T08:52:13.151Z,2902
2017-08-08T08:53:13.140Z,2705
2017-08-08T08:54:13.129Z,3206
2017-08-08T08:55:13.131Z,3251
2017-08-08T08:56:13.156Z,3290
2017-08-08T08:57:13.165Z,3465
2017-08-08T08:58:13.114Z,3690
2017-08-08T08:59:13.160Z,3858
2017-08-08T09:00:13.143Z,3920
2017-08-08T09:01:13.178Z,3898
2017-08-08T09:02:13.165Z,3718
2017-08-08T09:03:13.144Z,3397
2017-08-08T09:04:13.174Z,3532
2017-08-08T09:05:13.174Z,3386
2017-08-08T09:06:13.231Z,2913
2017-08-08T09:07:13.202Z,3493
2017-08-08T09:08:13.198Z,3796
2017-08-08T09:09:13.196Z,3538
2017-08-08T09:10:13.138Z,3481
2017-08-08T09:11:13.174Z,3341
2017-08-08T09:12:13.149Z,3054
2017-08-08T09:13:13.148Z,3886
2017-08-08T09:14:13.097Z,3960
2017-08-08T09:15:13.162Z,3751
2017-08-08T09:16:13.139Z,3313
2017-08-08T09:17:13.120Z,2958
2017-08-08T09:18:13.117Z,2891
2017-08-08T09:19:13.146Z,3251
2017-08-08T09:20:13.155Z,3341
2017-08-08T09:21:13.214Z,3352
2017-08-08T09:22:13.207Z,3436
2017-08-08T09:23:13.190Z,3268
2017-08-08T09:24:13.218Z,3296
2017-08-08T09:25:13.222Z,3639
2017-08-08T09:26:13.181Z,3121
2017-08-08T09:27:13.182Z,3352
2017-08-08T09:28:13.229Z,3836
2017-08-08T09:29:13.208Z,3735
2017-08-08T09:30:13.153Z,3346
2017-08-08T09:31:13.160Z,3493
2017-08-08T09:32:13.224Z,3476
2017-08-08T09:33:13.230Z,3403
2017-08-08T09:34:13.247Z,3358
2017-08-08T09:35:13.190Z,3380
2017-08-08T09:36:13.163Z,3954
2017-08-08T09:37:13.292Z,4235
2017-08-08T09:38:13.181Z,4696
2017-08-08T09:39:13.156Z,4460
2017-08-08T09:40:13.153Z,4438
2017-08-08T09:41:13.213Z,4241
2017-08-08T09:42:13.221Z,3948
2017-08-08T09:43:13.221Z,4156
2017-08-08T09:44:13.221Z,4213
2017-08-08T09:45:13.220Z,4466
2017-08-08T09:46:13.197Z,4680
2017-08-08T09:47:13.156Z,4505
2017-08-08T09:48:13.156Z,4556
2017-08-08T09:49:13.188Z,4758
2017-08-08T09:50:13.196Z,4820
2017-08-08T09:51:13.206Z,4336
2017-08-08T09:52:13.173Z,4432
2017-08-08T09:53:13.194Z,4325
2017-08-08T09:54:13.208Z,4398
2017-08-08T09:55:13.177Z,4005
2017-08-08T09:56:13.208Z,3273
2017-08-08T09:57:13.229Z,3313
2017-08-08T09:58:13.197Z,3346
2017-08-08T09:59:13.263Z,3819
2017-08-08T10:00:13.263Z,4207
2017-08-08T10:01:13.174Z,4207
2017-08-08T10:02:13.176Z,3774
2017-08-08T10:03:13.202Z,3695
2017-08-08T10:04:13.270Z,3003
2017-08-08T10:05:13.217Z,3363
2017-08-08T10:06:13.181Z,3358
2017-08-08T10:07:13.196Z,3656
2017-08-08T10:08:13.240Z,4111
2017-08-08T10:09:13.183Z,4921
2017-08-08T10:10:13.188Z,5439
2017-08-08T10:11:13.186Z,5326
2017-08-08T10:12:13.271Z,5512
2017-08-08T10:13:13.222Z,4578
2017-08-08T10:14:13.242Z,5478
2017-08-08T10:15:13.242Z,4741
2017-08-08T10:16:13.243Z,3903
2017-08-08T10:17:13.244Z,3211
2017-08-08T10:18:13.205Z,3380
2017-08-08T10:19:13.277Z,3442
2017-08-08T10:20:13.215Z,4815
2017-08-08T10:21:13.211Z,4674
2017-08-08T10:22:13.225Z,4815
2017-08-08T10:23:13.243Z,5591
2017-08-08T10:24:13.193Z,4556
2017-08-08T10:25:13.224Z,4848
2017-08-08T10:26:13.213Z,5490
2017-08-08T10:27:13.260Z,5675
2017-08-08T10:28:13.193Z,5613
2017-08-08T10:29:13.216Z,5760
2017-08-08T10:30:13.172Z,5653
2017-08-08T10:31:13.181Z,5180
2017-08-08T10:32:13.128Z,5568
2017-08-08T10:33:13.173Z,5574
2017-08-08T10:34:13.190Z,5287
2017-08-08T10:35:13.184Z,5338
2017-08-08T10:36:13.210Z,5467
2017-08-08T10:37:13.207Z,4246
2017-08-08T10:38:13.195Z,3943
2017-08-08T10:39:13.170Z,2806
2017-08-08T10:40:13.204Z,3251
2017-08-08T10:41:13.200Z,3555
2017-08-08T10:42:13.225Z,3566
2017-08-08T10:43:13.254Z,3808
2017-08-08T10:44:13.201Z,3110
2017-08-08T10:45:13.230Z,3245
2017-08-08T10:46:13.291Z,2998
2017-08-08T10:47:13.255Z,3003
2017-08-08T10:48:13.270Z,3189
2017-08-08T10:49:13.259Z,3228
2017-08-08T10:50:13.266Z,3279
2017-08-08T10:51:13.232Z,3054
2017-08-08T10:52:13.259Z,3099
2017-08-08T10:53:13.228Z,3515
2017-08-08T10:54:13.212Z,3256
2017-08-08T10:55:13.299Z,3268
2017-08-08T10:56:13.239Z,3020
2017-08-08T10:57:13.298Z,2638
2017-08-08T10:58:13.242Z,2531
2017-08-08T10:59:13.246Z,2475
2017-08-08T11:00:13.207Z,2396
2017-08-08T11:01:13.261Z,2221
2017-08-08T11:02:13.239Z,2081
2017-08-08T11:03:13.281Z,1906
2017-08-08T11:04:13.248Z,1800
2017-08-08T11:05:13.248Z,1704
2017-08-08T11:06:13.220Z,1631
2017-08-08T11:07:13.214Z,1586
2017-08-08T11:08:13.246Z,1524
2017-08-08T11:09:13.255Z,1496
2017-08-08T11:10:13.267Z,1456
2017-08-08T11:11:13.231Z,1428
2017-08-08T11:12:13.270Z,1423
2017-08-08T11:13:13.208Z,1417
2017-08-08T11:14:13.269Z,1440
2017-08-08T11:15:13.215Z,1485
2017-08-08T11:16:13.245Z,1541
2017-08-08T11:17:13.269Z,1591
2017-08-08T11:18:13.276Z,1608
2017-08-08T11:19:13.238Z,1580
2017-08-08T11:20:13.238Z,1530
2017-08-08T11:21:13.212Z,1485
2017-08-08T11:22:13.211Z,1485
2017-08-08T11:23:13.277Z,1485
2017-08-08T11:24:13.276Z,1473
2017-08-08T11:25:13.204Z,1473
2017-08-08T11:26:13.212Z,1468
2017-08-08T11:27:13.247Z,1501
2017-08-08T11:28:13.221Z,1558
2017-08-08T11:29:13.276Z,1603
2017-08-08T11:30:13.245Z,1648
2017-08-08T11:31:13.245Z,1681
2017-08-08T11:32:13.246Z,1732
2017-08-08T11:33:13.251Z,1783
2017-08-08T11:34:13.257Z,1811
2017-08-08T11:35:13.231Z,1811
2017-08-08T11:36:13.195Z,1811
2017-08-08T11:37:13.198Z,1816
2017-08-08T11:38:13.233Z,1828
2017-08-08T11:39:13.247Z,1828
2017-08-08T11:40:13.264Z,1805
2017-08-08T11:41:13.294Z,1794
2017-08-08T11:42:13.302Z,1811
2017-08-08T11:43:13.321Z,1845
2017-08-08T11:44:13.316Z,1878
2017-08-08T11:45:13.300Z,1912
2017-08-08T11:46:13.327Z,1968
2017-08-08T11:47:13.235Z,2053
2017-08-08T11:48:13.240Z,2148
2017-08-08T11:49:13.261Z,2193
2017-08-08T11:50:13.237Z,2126
2017-08-08T11:51:13.331Z,2030
2017-08-08T11:52:13.241Z,1923
2017-08-08T11:53:13.235Z,1912
2017-08-08T11:54:13.326Z,1878
2017-08-08T11:55:13.335Z,1884
2017-08-08T11:56:13.242Z,1985
2017-08-08T11:57:13.276Z,2193
2017-08-08T11:58:13.307Z,2176
2017-08-08T11:59:13.319Z,2261
2017-08-08T12:00:13.241Z,2587
2017-08-08T12:01:13.247Z,2610
2017-08-08T12:02:13.321Z,3391
2017-08-08T12:03:13.332Z,3735
2017-08-08T12:04:13.304Z,3048
2017-08-08T12:05:13.306Z,3178
2017-08-08T12:06:13.251Z,2812
2017-08-08T12:07:13.345Z,2576
2017-08-08T12:08:13.247Z,2441
2017-08-08T12:09:13.282Z,2334
2017-08-08T12:10:13.271Z,2250
2017-08-08T12:11:13.269Z,2120
2017-08-08T12:12:13.245Z,1906
2017-08-08T12:13:13.270Z,1698
2017-08-08T12:14:13.301Z,1586
2017-08-08T12:15:13.240Z,1530
2017-08-08T12:16:13.249Z,1535
2017-08-08T12:17:13.249Z,1575
2017-08-08T12:18:13.302Z,1569
2017-08-08T12:19:13.274Z,1524
2017-08-08T12:20:13.309Z,1423
2017-08-08T12:21:13.267Z,1276
2017-08-08T12:22:13.252Z,1141
2017-08-08T12:23:13.281Z,1051
2017-08-08T12:24:13.255Z,1012
2017-08-08T12:25:13.254Z,1001
2017-08-08T12:26:13.237Z,1018
2017-08-08T12:27:13.281Z,1046
2017-08-08T12:28:13.288Z,1080
2017-08-08T12:29:13.280Z,1085
2017-08-08T12:30:13.256Z,1035
2017-08-08T12:31:13.279Z,945
2017-08-08T12:32:13.280Z,832
2017-08-08T12:33:13.231Z,731
2017-08-08T12:34:13.285Z,675
2017-08-08T12:35:13.271Z,624
2017-08-08T12:36:13.261Z,568
2017-08-08T12:37:13.284Z,517
2017-08-08T12:38:13.271Z,495
2017-08-08T12:39:13.286Z,511
2017-08-08T12:40:13.236Z,534
2017-08-08T12:41:13.326Z,551
2017-08-08T12:42:13.345Z,556
2017-08-08T12:43:13.257Z,556
2017-08-08T12:44:13.294Z,551
2017-08-08T12:45:13.337Z,573
2017-08-08T12:46:13.264Z,630
2017-08-08T12:47:13.264Z,686
2017-08-08T12:48:13.322Z,725
2017-08-08T12:49:13.326Z,781
2017-08-08T12:50:13.293Z,832
2017-08-08T12:51:13.276Z,871
2017-08-08T12:52:13.332Z,883
2017-08-08T12:53:13.296Z,900
2017-08-08T12:54:13.312Z,945
2017-08-08T12:55:13.272Z,990
2017-08-08T12:56:13.281Z,1029
2017-08-08T12:57:13.330Z,1029
2017-08-08T12:58:13.335Z,956
2017-08-08T12:59:13.346Z,793
2017-08-08T13:00:13.371Z,658
2017-08-08T13:01:13.316Z,601
2017-08-08T13:02:13.351Z,579
2017-08-08T13:03:13.333Z,534
2017-08-08T13:04:13.280Z,478
2017-08-08T13:05:13.285Z,438
2017-08-08T13:06:13.282Z,410
2017-08-08T13:07:13.303Z,405
2017-08-08T13:08:13.352Z,405
2017-08-08T13:09:13.341Z,421
2017-08-08T13:10:13.283Z,450
2017-08-08T13:11:13.288Z,489
2017-08-08T13:12:13.282Z,556
2017-08-08T13:13:13.375Z,641
2017-08-08T13:14:13.373Z,708
2017-08-08T13:15:13.288Z,725
2017-08-08T13:16:13.358Z,675
2017-08-08T13:17:13.339Z,601
2017-08-08T13:18:13.311Z,523
2017-08-08T13:19:13.361Z,500
2017-08-08T13:20:13.318Z,511
2017-08-08T13:21:13.314Z,534
2017-08-08T13:22:13.315Z,545
2017-08-08T13:23:13.286Z,585
2017-08-08T13:24:13.325Z,635
2017-08-08T13:25:13.261Z,691
2017-08-08T13:26:13.244Z,708
2017-08-08T13:27:13.322Z,725
2017-08-08T13:28:13.315Z,736
2017-08-08T13:29:13.297Z,736
2017-08-08T13:30:13.263Z,736
2017-08-08T13:31:13.352Z,714
2017-08-08T13:32:13.290Z,669
2017-08-08T13:33:13.318Z,618
2017-08-08T13:34:13.379Z,556
2017-08-08T13:35:13.324Z,495
2017-08-08T13:36:13.352Z,450
2017-08-08T13:37:13.359Z,427
2017-08-08T13:38:13.356Z,416
2017-08-08T13:39:13.355Z,416
2017-08-08T13:40:13.354Z,410
2017-08-08T13:41:13.352Z,421
2017-08-08T13:42:13.357Z,421
2017-08-08T13:43:13.292Z,444
2017-08-08T13:44:13.329Z,450
2017-08-08T13:45:13.328Z,455
2017-08-08T13:46:13.327Z,461
2017-08-08T13:47:13.355Z,461
2017-08-08T13:48:13.369Z,444
2017-08-08T13:49:13.330Z,444
2017-08-08T13:50:13.330Z,438